Time;durP1;ratioP1;P1;durP2;ratioP2;P2;SDS_P1;SDS_P2;PMS_P1;PMS_P2;Temp;Humidity;BMP_temperature;BMP_pressure;BME280_temperature;BME280_humidity;BME280_pressure;Samples;Min_cycle;Max_cycle;Signal;HPM_P1;HPM_P2
2024/01/14 00:00:02;;;;;;;;;;;;;;;-1.32;56.47;95274.59;5014148;28;20198;-73
2024/01/14 00:02:28;;;;;;;;;;;;;;;-1.84;54.97;95286.06;5014267;28;19946;-73
2024/01/14 00:04:53;;;;;;;;;;;;;;;-1.17;57.87;95276.09;5013935;28;20459;-73
2024/01/14 00:07:18;;;;;;;;;;;;;;;-1.32;54.90;95275.44;5012769;28;19950;-73
2024/01/14 00:09:43;;;;;;;;;;;;;;;-1.41;55.32;95274.31;5015036;28;19940;-73
2024/01/14 00:12:10;;;;;;;;;;;;;;;-1.39;58.83;95282.06;5013930;28;20479;-74
2024/01/14 00:14:35;;;;;;;;;;;;;;;-1.53;59.63;95281.25;5014300;28;19991;-73
2024/01/14 00:17:00;;;;;;;;;;;;;;;-1.54;60.47;95274.38;5013744;28;19953;-73
2024/01/14 00:19:25;;;;;;;;;;;;;;;-1.51;58.27;95284.59;5011587;28;19992;-73
2024/01/14 00:21:51;;;;;;;;;;;;;;;-1.53;60.16;95278.66;5014379;28;19960;-73
2024/01/14 00:24:16;;;;;;;;;;;;;;;-1.61;58.88;95268.78;5010045;28;20077;-74
2024/01/14 00:26:41;;;;;;;;;;;;;;;-1.63;55.56;95267.22;5011206;28;20052;-73
2024/01/14 00:29:06;;;;;;;;;;;;;;;-1.92;58.07;95268.34;5014384;28;20784;-74
2024/01/14 00:31:32;;;;;;;;;;;;;;;-1.54;59.55;95263.94;5011288;28;19993;-73
2024/01/14 00:33:57;;;;;;;;;;;;;;;-1.52;56.69;95256.00;5008394;28;19941;-73
2024/01/14 00:36:22;;;;;;;;;;;;;;;-1.44;56.33;95252.81;5015883;28;19999;-73
2024/01/14 00:38:47;;;;;;;;;;;;;;;-1.25;58.08;95250.50;5016869;28;20220;-74
2024/01/14 00:41:13;;;;;;;;;;;;;;;-1.44;55.65;95247.59;5011980;28;20009;-74
2024/01/14 00:43:38;;;;;;;;;;;;;;;-1.50;56.76;95241.03;5015577;28;19925;-73
2024/01/14 00:46:03;;;;;;;;;;;;;;;-1.36;60.88;95246.09;5015324;28;20123;-74
2024/01/14 00:48:29;;;;;;;;;;;;;;;-1.28;60.57;95235.09;5016341;28;19960;-74
2024/01/14 00:50:54;;;;;;;;;;;;;;;-1.19;59.17;95237.97;5016791;28;20133;-73
2024/01/14 00:53:19;;;;;;;;;;;;;;;-1.17;56.16;95234.28;5014755;28;20022;-72
2024/01/14 00:55:45;;;;;;;;;;;;;;;-0.91;56.82;95236.75;5017747;28;19955;-72
2024/01/14 00:58:10;;;;;;;;;;;;;;;-1.05;55.39;95232.50;5017568;28;20440;-71
2024/01/14 01:00:35;;;;;;;;;;;;;;;-0.89;54.70;95240.09;5017787;28;19988;-72
2024/01/14 01:03:01;;;;;;;;;;;;;;;-1.11;55.06;95233.00;5017882;28;20484;-73
2024/01/14 01:05:26;;;;;;;;;;;;;;;-0.95;56.20;95230.06;5016400;28;20065;-72
2024/01/14 01:07:51;;;;;;;;;;;;;;;-0.98;55.87;95220.66;5015439;28;19963;-72
2024/01/14 01:10:16;;;;;;;;;;;;;;;-0.64;54.25;95216.47;5018191;28;19949;-70
2024/01/14 01:12:42;;;;;;;;;;;;;;;-0.99;53.95;95211.16;5016847;28;19953;-73
2024/01/14 01:15:07;;;;;;;;;;;;;;;-1.60;58.57;95217.38;5017660;28;19980;-70
2024/01/14 01:17:33;;;;;;;;;;;;;;;-1.57;57.08;95211.94;5017264;28;20234;-72
2024/01/14 01:19:59;;;;;;;;;;;;;;;-1.22;56.25;95211.09;5016878;28;20930;-72
2024/01/14 01:22:25;;;;;;;;;;;;;;;-1.55;57.99;95209.22;5016850;28;20038;-71
2024/01/14 01:24:50;;;;;;;;;;;;;;;-1.46;56.69;95206.75;5016026;28;19994;-72
2024/01/14 01:27:15;;;;;;;;;;;;;;;-1.19;55.97;95210.03;5013020;28;20353;-73
2024/01/14 01:29:40;;;;;;;;;;;;;;;-1.50;54.13;95200.09;5014183;28;19921;-72
2024/01/14 01:32:06;;;;;;;;;;;;;;;-1.39;55.18;95201.91;5010588;28;19960;-73
2024/01/14 01:34:31;;;;;;;;;;;;;;;-1.23;56.05;95203.38;5015568;28;19931;-73
2024/01/14 01:36:56;;;;;;;;;;;;;;;-1.15;53.92;95205.44;5014761;28;19991;-73
2024/01/14 01:39:21;;;;;;;;;;;;;;;-1.43;55.77;95197.84;5016897;28;19986;-73
2024/01/14 01:41:47;;;;;;;;;;;;;;;-1.44;54.55;95195.34;5013678;28;19956;-73
2024/01/14 01:44:12;;;;;;;;;;;;;;;-1.53;57.31;95195.09;5022640;28;20318;-73
2024/01/14 01:46:38;;;;;;;;;;;;;;;-1.46;54.17;95192.84;5017190;28;19960;-73
2024/01/14 01:49:03;;;;;;;;;;;;;;;-1.17;55.75;95186.41;5015279;28;19951;-71
2024/01/14 01:51:29;;;;;;;;;;;;;;;-1.31;57.01;95190.06;5014296;28;19955;-73
2024/01/14 01:53:54;;;;;;;;;;;;;;;-0.87;54.96;95195.53;5013819;28;19943;-71
2024/01/14 01:56:19;;;;;;;;;;;;;;;-1.37;56.84;95186.13;5016471;28;19963;-71
2024/01/14 01:58:44;;;;;;;;;;;;;;;-1.34;57.38;95185.91;5017245;28;19917;-70
2024/01/14 02:01:10;;;;;;;;;;;;;;;-1.43;56.67;95186.59;5012275;28;20373;-72
2024/01/14 02:03:35;;;;;;;;;;;;;;;-1.26;56.24;95178.31;5012773;28;20177;-71
2024/01/14 02:06:00;;;;;;;;;;;;;;;-1.41;56.50;95185.53;5014135;28;20068;-72
2024/01/14 02:08:25;;;;;;;;;;;;;;;-1.02;55.87;95185.25;5010772;28;20325;-72
2024/01/14 02:10:51;;;;;;;;;;;;;;;-1.22;56.18;95184.97;5012818;28;20220;-71
2024/01/14 02:13:16;;;;;;;;;;;;;;;-1.56;56.60;95184.06;5014744;28;20064;-72
2024/01/14 02:15:41;;;;;;;;;;;;;;;-2.53;58.02;95188.25;5014107;28;19932;-72
2024/01/14 02:18:06;;;;;;;;;;;;;;;-1.73;57.64;95178.28;5015592;28;19924;-72
2024/01/14 02:20:32;;;;;;;;;;;;;;;-1.31;57.03;95175.22;5016195;28;20488;-71
2024/01/14 02:22:57;;;;;;;;;;;;;;;-1.20;56.50;95174.41;5016543;28;20461;-72
2024/01/14 02:25:22;;;;;;;;;;;;;;;-1.25;57.66;95173.94;5015653;28;19979;-71
2024/01/14 02:27:48;;;;;;;;;;;;;;;-1.44;56.40;95170.09;5012679;28;20327;-72
2024/01/14 02:30:13;;;;;;;;;;;;;;;-1.59;56.31;95161.63;5015006;28;19942;-72
2024/01/14 02:32:38;;;;;;;;;;;;;;;-1.72;57.10;95153.84;5014787;28;20003;-71
2024/01/14 02:35:05;;;;;;;;;;;;;;;-1.55;58.95;95136.94;5016022;28;20141;-72
2024/01/14 02:37:30;;;;;;;;;;;;;;;-1.66;59.11;95140.31;5015594;28;19994;-72
2024/01/14 02:39:55;;;;;;;;;;;;;;;-2.02;57.34;95147.31;5015857;28;20414;-72
2024/01/14 02:42:21;;;;;;;;;;;;;;;-1.82;58.98;95142.41;5014171;28;20378;-72
2024/01/14 02:44:46;;;;;;;;;;;;;;;-1.56;58.37;95144.88;5015920;28;20028;-72
2024/01/14 02:47:11;;;;;;;;;;;;;;;-1.82;56.75;95137.19;5015854;28;19925;-71
2024/01/14 02:49:36;;;;;;;;;;;;;;;-1.74;58.42;95133.06;5017565;28;19925;-72
2024/01/14 02:52:02;;;;;;;;;;;;;;;-1.82;59.41;95142.41;5010096;28;20178;-72
2024/01/14 02:54:27;;;;;;;;;;;;;;;-1.82;58.31;95138.03;4996634;28;20415;-72
2024/01/14 02:56:53;;;;;;;;;;;;;;;-2.29;58.39;95135.31;4995456;28;20307;-72
2024/01/14 02:59:18;;;;;;;;;;;;;;;-2.08;58.96;95126.91;4994817;28;20203;-71
2024/01/14 03:01:46;;;;;;;;;;;;;;;-2.14;58.97;95136.00;4994299;28;19954;-72
2024/01/14 03:04:11;;;;;;;;;;;;;;;-2.03;60.20;95137.81;4994732;28;20093;-71
2024/01/14 03:06:37;;;;;;;;;;;;;;;-1.80;57.36;95133.50;4992840;28;19955;-72
2024/01/14 03:09:02;;;;;;;;;;;;;;;-1.84;57.30;95139.91;4994812;28;20256;-71
2024/01/14 03:11:27;;;;;;;;;;;;;;;-1.83;58.17;95125.94;4995269;28;19929;-72
2024/01/14 03:13:52;;;;;;;;;;;;;;;-2.01;61.14;95120.25;5005113;28;19921;-72
2024/01/14 03:16:18;;;;;;;;;;;;;;;-1.93;61.94;95117.91;5003727;28;20056;-73
2024/01/14 03:18:44;;;;;;;;;;;;;;;-1.78;59.70;95129.03;5000579;28;19939;-73
2024/01/14 03:21:15;;;;;;;;;;;;;;;-1.71;61.74;95124.19;5006068;28;20248;-72
2024/01/14 03:23:40;;;;;;;;;;;;;;;-1.60;59.21;95123.38;4999472;28;19958;-73
2024/01/14 03:26:05;;;;;;;;;;;;;;;-1.74;57.43;95121.78;5005530;28;19978;-72
2024/01/14 03:28:31;;;;;;;;;;;;;;;-1.55;59.80;95126.50;5006247;28;19992;-72
2024/01/14 03:30:56;;;;;;;;;;;;;;;-1.56;59.51;95116.97;5004945;28;19947;-71
2024/01/14 03:33:21;;;;;;;;;;;;;;;-1.56;58.27;95118.78;5005281;28;19959;-73
2024/01/14 03:35:46;;;;;;;;;;;;;;;-1.56;61.27;95114.38;5002104;28;20011;-72
2024/01/14 03:38:12;;;;;;;;;;;;;;;-1.50;59.05;95108.69;4999727;28;20077;-72
2024/01/14 03:40:37;;;;;;;;;;;;;;;-1.60;60.07;95102.50;5002758;28;19929;-72
2024/01/14 03:43:02;;;;;;;;;;;;;;;-1.69;55.11;95097.97;4998209;28;19937;-72
2024/01/14 03:45:27;;;;;;;;;;;;;;;-1.82;57.58;95106.72;5002654;28;19926;-72
2024/01/14 03:47:53;;;;;;;;;;;;;;;-1.69;58.64;95097.97;5000081;28;20554;-72
2024/01/14 03:50:18;;;;;;;;;;;;;;;-1.84;57.42;95100.75;5001042;28;20043;-73
2024/01/14 03:52:43;;;;;;;;;;;;;;;-2.06;58.42;95101.50;4997633;28;19988;-72
2024/01/14 03:55:09;;;;;;;;;;;;;;;-1.91;59.16;95096.94;4995458;28;19942;-73
2024/01/14 03:57:34;;;;;;;;;;;;;;;-2.14;55.04;95086.44;4999947;28;19960;-73
2024/01/14 03:59:59;;;;;;;;;;;;;;;-1.93;57.10;95075.34;4998034;28;20425;-73
2024/01/14 04:02:24;;;;;;;;;;;;;;;-2.17;57.26;95078.81;4995431;28;19932;-72
2024/01/14 04:04:52;;;;;;;;;;;;;;;-1.81;59.32;95092.72;4996606;28;19921;-72
2024/01/14 04:07:17;;;;;;;;;;;;;;;-1.85;57.77;95084.28;4997095;28;20426;-74
2024/01/14 04:09:42;;;;;;;;;;;;;;;-1.61;57.36;95082.56;4996916;28;20019;-73
2024/01/14 04:12:08;;;;;;;;;;;;;;;-2.11;55.98;95081.81;5003188;28;19983;-72
2024/01/14 04:14:33;;;;;;;;;;;;;;;-2.02;58.49;95072.47;5007434;28;20299;-72
2024/01/14 04:16:58;;;;;;;;;;;;;;;-2.16;57.40;95075.25;5003507;28;20383;-74
2024/01/14 04:19:24;;;;;;;;;;;;;;;-1.82;59.67;95067.56;5002365;28;19926;-73
2024/01/14 04:21:49;;;;;;;;;;;;;;;-1.88;58.38;95060.19;5000946;28;20012;-72
2024/01/14 04:24:14;;;;;;;;;;;;;;;-1.89;61.83;95063.75;5001453;28;19933;-75
2024/01/14 04:26:39;;;;;;;;;;;;;;;-1.73;58.52;95060.84;5003347;28;20086;-72
2024/01/14 04:29:05;;;;;;;;;;;;;;;-1.90;58.57;95065.50;5003363;28;20333;-73
2024/01/14 04:31:30;;;;;;;;;;;;;;;-1.70;59.47;95052.75;5002367;28;19963;-72
2024/01/14 04:33:56;;;;;;;;;;;;;;;-1.79;58.34;95056.91;5010710;28;19925;-73
2024/01/14 04:36:22;;;;;;;;;;;;;;;-1.85;58.43;95046.91;5003572;28;19934;-72
2024/01/14 04:38:47;;;;;;;;;;;;;;;-2.37;55.67;95042.00;5005315;28;20486;-72
2024/01/14 04:41:12;;;;;;;;;;;;;;;-1.94;57.05;95058.03;5003966;28;20052;-73
2024/01/14 04:43:37;;;;;;;;;;;;;;;-1.82;57.08;95067.56;5004233;28;20022;-75
2024/01/14 04:46:06;;;;;;;;;;;;;;;-2.04;58.59;95058.72;5008771;28;19925;-73
2024/01/14 04:48:31;;;;;;;;;;;;;;;-1.76;56.91;95054.03;5011685;28;20006;-72
2024/01/14 04:50:57;;;;;;;;;;;;;;;-1.91;58.23;95049.97;5009065;28;19975;-72
2024/01/14 04:53:22;;;;;;;;;;;;;;;-2.00;57.33;95054.91;5006418;28;19962;-73
2024/01/14 04:55:47;;;;;;;;;;;;;;;-2.47;56.39;95041.81;5011628;28;19953;-72
2024/01/14 04:58:12;;;;;;;;;;;;;;;-2.31;57.50;95045.94;5017386;28;20201;-73
2024/01/14 05:00:38;;;;;;;;;;;;;;;-1.95;55.72;95051.97;5013628;28;20166;-71
2024/01/14 05:03:03;;;;;;;;;;;;;;;-2.21;55.10;95051.31;5016446;28;19988;-72
2024/01/14 05:05:28;;;;;;;;;;;;;;;-2.05;55.87;95054.44;5018570;28;19962;-71
2024/01/14 05:07:54;;;;;;;;;;;;;;;-2.37;54.86;95053.22;5016793;28;19952;-71
2024/01/14 05:10:19;;;;;;;;;;;;;;;-1.96;55.99;95049.47;5020724;28;19929;-72
2024/01/14 05:12:44;;;;;;;;;;;;;;;-2.28;55.05;95046.53;5020618;28;20012;-71
2024/01/14 05:15:09;;;;;;;;;;;;;;;-2.67;56.18;95045.84;5002500;28;19964;-71
2024/01/14 05:17:35;;;;;;;;;;;;;;;-2.53;57.13;95037.88;5009856;28;20135;-71
2024/01/14 05:20:00;;;;;;;;;;;;;;;-2.34;55.68;95036.56;5007133;28;19928;-71
2024/01/14 05:22:26;;;;;;;;;;;;;;;-2.54;55.16;95044.03;5007555;28;19931;-71
2024/01/14 05:24:51;;;;;;;;;;;;;;;-2.69;56.43;95034.69;5008664;28;20499;-71
2024/01/14 05:27:16;;;;;;;;;;;;;;;-2.63;55.68;95024.69;5010801;28;19933;-72
2024/01/14 05:29:45;;;;;;;;;;;;;;;-2.78;56.47;95024.00;5006230;28;20437;-71
2024/01/14 05:32:11;;;;;;;;;;;;;;;-2.14;56.51;95016.81;5002469;28;19927;-72
2024/01/14 05:34:36;;;;;;;;;;;;;;;-2.27;55.62;95018.69;4996893;28;19922;-72
2024/01/14 05:37:01;;;;;;;;;;;;;;;-1.73;55.37;95017.28;4996137;28;19956;-71
2024/01/14 05:39:27;;;;;;;;;;;;;;;-2.15;54.23;95030.81;4995814;28;20063;-72
2024/01/14 05:41:52;;;;;;;;;;;;;;;-1.85;55.97;95026.03;4995431;28;19968;-71
2024/01/14 05:44:17;;;;;;;;;;;;;;;-1.71;54.50;95019.78;4996532;28;20484;-72
2024/01/14 05:46:43;;;;;;;;;;;;;;;-1.72;54.59;95016.31;4994327;28;20345;-72
2024/01/14 05:49:08;;;;;;;;;;;;;;;-2.41;54.34;95015.28;4996549;28;19967;-72
2024/01/14 05:51:33;;;;;;;;;;;;;;;-2.24;56.38;95014.06;4996065;28;20515;-70
2024/01/14 05:53:59;;;;;;;;;;;;;;;-2.27;54.32;95010.84;4994034;28;19958;-71
2024/01/14 05:56:25;;;;;;;;;;;;;;;-2.20;56.99;95006.00;4996223;28;20444;-72
2024/01/14 05:58:50;;;;;;;;;;;;;;;-1.98;56.68;95006.09;4998195;28;20503;-71
2024/01/14 06:01:15;;;;;;;;;;;;;;;-2.00;55.64;95001.94;4998143;28;19961;-72
2024/01/14 06:03:41;;;;;;;;;;;;;;;-1.94;56.79;95004.06;4997035;28;20077;-72
2024/01/14 06:06:06;;;;;;;;;;;;;;;-2.01;55.58;94993.25;5001198;28;19964;-72
2024/01/14 06:08:31;;;;;;;;;;;;;;;-1.98;55.62;95000.84;4996139;28;19964;-72
2024/01/14 06:10:57;;;;;;;;;;;;;;;-1.87;53.89;95004.41;4999469;28;20714;-72
2024/01/14 06:13:22;;;;;;;;;;;;;;;-1.84;55.11;95001.59;4996803;28;19964;-71
2024/01/14 06:15:48;;;;;;;;;;;;;;;-2.11;53.77;94997.50;4996650;28;19980;-72
2024/01/14 06:18:13;;;;;;;;;;;;;;;-2.17;55.13;94992.75;4997487;28;19926;-71
2024/01/14 06:20:38;;;;;;;;;;;;;;;-2.33;54.64;95000.84;4998291;28;19932;-71
2024/01/14 06:23:04;;;;;;;;;;;;;;;-2.11;56.14;94997.50;4995939;28;20015;-72
2024/01/14 06:25:29;;;;;;;;;;;;;;;-2.11;55.58;94998.34;4997891;28;20003;-73
2024/01/14 06:27:55;;;;;;;;;;;;;;;-2.10;55.28;94986.13;4991851;28;20234;-72
2024/01/14 06:30:20;;;;;;;;;;;;;;;-2.23;54.95;94988.81;4998022;28;19957;-71
2024/01/14 06:32:45;;;;;;;;;;;;;;;-2.69;56.40;95000.81;4995162;28;20590;-71
2024/01/14 06:35:10;;;;;;;;;;;;;;;-2.78;56.12;94991.91;5000188;28;20107;-72
2024/01/14 06:37:36;;;;;;;;;;;;;;;-2.67;56.47;94994.56;4994774;28;19960;-72
2024/01/14 06:40:02;;;;;;;;;;;;;;;-2.70;55.52;94994.78;4993024;28;19958;-71
2024/01/14 06:42:27;;;;;;;;;;;;;;;-2.24;54.28;95001.00;4993645;28;20192;-72
2024/01/14 06:44:52;;;;;;;;;;;;;;;-2.25;57.04;94994.13;4997794;28;19980;-72
2024/01/14 06:47:18;;;;;;;;;;;;;;;-2.65;55.53;94986.66;4998406;28;20471;-72
2024/01/14 06:49:43;;;;;;;;;;;;;;;-2.25;55.32;94983.72;5001988;28;19965;-72
2024/01/14 06:52:08;;;;;;;;;;;;;;;-2.73;54.65;94983.72;4997054;28;20020;-72
2024/01/14 06:54:37;;;;;;;;;;;;;;;-2.51;56.70;94983.03;4993587;28;20400;-72
2024/01/14 06:57:02;;;;;;;;;;;;;;;-2.07;56.39;94983.28;4995843;28;19929;-72
2024/01/14 06:59:28;;;;;;;;;;;;;;;-1.96;54.06;94982.47;4995518;28;19983;-71
2024/01/14 07:01:53;;;;;;;;;;;;;;;-2.07;53.98;94987.69;4992911;28;20511;-72
2024/01/14 07:04:18;;;;;;;;;;;;;;;-2.46;53.74;94980.06;4993723;28;20690;-71
2024/01/14 07:06:43;;;;;;;;;;;;;;;-2.56;54.92;94970.31;4994286;28;19982;-72
2024/01/14 07:09:10;;;;;;;;;;;;;;;-2.66;55.73;94974.53;4996105;28;19949;-72
2024/01/14 07:11:35;;;;;;;;;;;;;;;-2.58;55.69;94979.19;4992990;28;19987;-71
2024/01/14 07:14:01;;;;;;;;;;;;;;;-2.47;55.97;94974.03;4995181;28;20616;-72
2024/01/14 07:16:26;;;;;;;;;;;;;;;-2.14;55.04;94971.66;4993243;28;19956;-72
2024/01/14 07:18:52;;;;;;;;;;;;;;;-3.70;57.74;94975.63;4996239;28;20310;-72
2024/01/14 07:21:21;;;;;;;;;;;;;;;-2.94;57.56;94969.56;4995191;28;19961;-71
2024/01/14 07:23:46;;;;;;;;;;;;;;;-2.90;56.30;94967.56;4992811;28;20412;-72
2024/01/14 07:26:12;;;;;;;;;;;;;;;-2.79;56.51;94967.59;4995311;28;20526;-72
2024/01/14 07:28:38;;;;;;;;;;;;;;;-2.69;56.00;94974.75;4990695;28;19954;-71
2024/01/14 07:31:03;;;;;;;;;;;;;;;-2.72;56.03;94980.22;4996350;28;20448;-72
2024/01/14 07:33:28;;;;;;;;;;;;;;;-2.91;55.59;94971.09;4995034;28;20452;-72
2024/01/14 07:35:55;;;;;;;;;;;;;;;-2.94;56.48;94973.91;4993947;28;20016;-71
2024/01/14 07:38:20;;;;;;;;;;;;;;;-2.47;56.48;94981.84;4997548;28;20107;-72
2024/01/14 07:40:45;;;;;;;;;;;;;;;-3.03;55.41;94975.41;4993419;28;20456;-72
2024/01/14 07:43:10;;;;;;;;;;;;;;;-3.09;55.75;94979.28;4993728;28;20220;-71
2024/01/14 07:45:36;;;;;;;;;;;;;;;-2.82;55.73;94975.63;4994393;28;20819;-72
2024/01/14 07:48:02;;;;;;;;;;;;;;;-3.09;56.43;94968.03;4994247;28;19991;-71
2024/01/14 07:50:27;;;;;;;;;;;;;;;-2.98;55.55;94956.84;4991605;28;20053;-72
2024/01/14 07:52:52;;;;;;;;;;;;;;;-2.44;57.42;94959.94;4999786;28;20318;-72
2024/01/14 07:55:17;;;;;;;;;;;;;;;-3.23;56.19;94956.00;4995770;28;20289;-72
2024/01/14 07:57:43;;;;;;;;;;;;;;;-3.59;57.43;94954.09;4994083;28;20340;-73
2024/01/14 08:00:08;;;;;;;;;;;;;;;-3.12;57.92;94957.84;4995299;28;20367;-70
2024/01/14 08:02:34;;;;;;;;;;;;;;;-2.90;56.89;94957.13;4992756;28;20401;-72
2024/01/14 08:04:59;;;;;;;;;;;;;;;-3.02;57.10;94954.47;4993656;28;19926;-73
2024/01/14 08:07:24;;;;;;;;;;;;;;;-2.39;55.83;94956.06;4991881;28;19947;-73
2024/01/14 08:09:49;;;;;;;;;;;;;;;-2.89;55.72;94953.56;4994518;28;19986;-72
2024/01/14 08:12:14;;;;;;;;;;;;;;;-2.58;55.43;94960.97;4993956;28;19957;-72
2024/01/14 08:14:40;;;;;;;;;;;;;;;-2.69;54.75;94967.78;4998373;28;19925;-72
2024/01/14 08:17:05;;;;;;;;;;;;;;;-2.47;55.71;94963.59;4997541;28;20341;-73
2024/01/14 08:19:30;;;;;;;;;;;;;;;-2.61;55.33;94956.81;4995010;28;20538;-70
2024/01/14 08:21:56;;;;;;;;;;;;;;;-2.61;54.72;94962.03;4994156;28;19989;-73
2024/01/14 08:24:21;;;;;;;;;;;;;;;-3.22;56.16;94961.09;4994308;28;19979;-73
2024/01/14 08:26:46;;;;;;;;;;;;;;;-3.05;56.16;94949.47;5001490;28;19962;-70
2024/01/14 08:29:14;;;;;;;;;;;;;;;-2.96;56.97;94949.78;4994565;28;19960;-72
2024/01/14 08:31:40;;;;;;;;;;;;;;;-2.71;57.64;94947.97;4995084;28;20395;-73
2024/01/14 08:34:06;;;;;;;;;;;;;;;-3.14;55.81;94937.09;5000954;28;19932;-73
2024/01/14 08:36:31;;;;;;;;;;;;;;;-2.78;56.81;94943.22;4998973;28;19922;-72
2024/01/14 08:38:57;;;;;;;;;;;;;;;-2.48;56.00;94946.28;4998538;28;19968;-72
2024/01/14 08:41:24;;;;;;;;;;;;;;;-2.40;55.16;94943.13;4990665;28;20023;-73
2024/01/14 08:43:53;;;;;;;;;;;;;;;-2.33;56.31;94951.31;4990083;28;19953;-73
2024/01/14 08:46:18;;;;;;;;;;;;;;;-2.11;54.64;94942.72;4999373;28;19949;-72
2024/01/14 08:48:43;;;;;;;;;;;;;;;-2.01;55.22;94938.47;4996093;28;19964;-73
2024/01/14 08:51:09;;;;;;;;;;;;;;;-2.18;54.96;94936.28;4996688;28;19958;-72
2024/01/14 08:53:34;;;;;;;;;;;;;;;-2.72;54.47;94934.09;4995627;28;20437;-72
2024/01/14 08:56:00;;;;;;;;;;;;;;;-3.14;56.17;94937.09;4998231;28;19955;-72
2024/01/14 08:58:25;;;;;;;;;;;;;;;-2.66;56.59;94938.03;4998010;28;19961;-71
2024/01/14 09:00:51;;;;;;;;;;;;;;;-2.31;56.40;94936.41;4997963;28;19976;-73
2024/01/14 09:03:17;;;;;;;;;;;;;;;-2.60;57.78;94942.81;4997672;28;19959;-71
2024/01/14 09:05:42;;;;;;;;;;;;;;;-2.45;56.98;94940.84;5000429;28;20280;-71
2024/01/14 09:08:08;;;;;;;;;;;;;;;-2.31;56.26;94942.44;4998233;28;20010;-72
2024/01/14 09:10:33;;;;;;;;;;;;;;;-2.48;56.35;94937.66;5001279;28;20489;-72
2024/01/14 09:12:58;;;;;;;;;;;;;;;-2.52;56.13;94942.25;4997521;28;19925;-73
2024/01/14 09:15:23;;;;;;;;;;;;;;;-2.62;55.37;94939.47;4999202;28;19922;-72
2024/01/14 09:17:49;;;;;;;;;;;;;;;-2.71;55.06;94954.03;4997589;28;19987;-71
2024/01/14 09:20:14;;;;;;;;;;;;;;;-2.85;55.15;94949.00;5001243;28;20360;-73
2024/01/14 09:22:39;;;;;;;;;;;;;;;-2.51;55.92;94944.75;5000626;28;20171;-72
2024/01/14 09:25:04;;;;;;;;;;;;;;;-2.77;54.75;94947.50;5000493;28;19952;-71
2024/01/14 09:27:30;;;;;;;;;;;;;;;-2.45;55.70;94945.25;5004921;28;20559;-71
2024/01/14 09:29:55;;;;;;;;;;;;;;;-3.34;55.81;94948.94;4999753;28;19956;-73
2024/01/14 09:32:21;;;;;;;;;;;;;;;-2.65;56.07;94945.75;4997850;28;19967;-71
2024/01/14 09:34:46;;;;;;;;;;;;;;;-2.42;55.71;94948.44;5003132;28;19982;-71
2024/01/14 09:37:11;;;;;;;;;;;;;;;-2.20;54.03;94938.19;5003717;28;19990;-72
2024/01/14 09:39:37;;;;;;;;;;;;;;;-1.90;54.83;94934.22;5005337;28;20011;-72
2024/01/14 09:42:04;;;;;;;;;;;;;;;-1.91;54.66;94948.19;4996084;28;19960;-71
2024/01/14 09:44:29;;;;;;;;;;;;;;;-1.65;54.82;94946.22;4996377;28;20086;-71
2024/01/14 09:46:55;;;;;;;;;;;;;;;-1.90;53.11;94939.44;4998002;28;20036;-73
2024/01/14 09:49:21;;;;;;;;;;;;;;;-1.50;54.80;94946.81;4995050;28;20401;-71
2024/01/14 09:51:47;;;;;;;;;;;;;;;-2.02;52.44;94955.06;4995852;28;19925;-71
2024/01/14 09:54:13;;;;;;;;;;;;;;;-2.22;54.70;94942.69;4997107;28;19944;-71
2024/01/14 09:56:38;;;;;;;;;;;;;;;-2.02;54.93;94941.19;4997596;28;19998;-71
2024/01/14 09:59:04;;;;;;;;;;;;;;;-1.80;53.78;94940.38;4991782;28;20295;-72
2024/01/14 10:01:31;;;;;;;;;;;;;;;-1.43;54.87;94925.44;4994173;28;19944;-71
2024/01/14 10:04:03;;;;;;;;;;;;;;;-1.76;51.43;94926.13;4996217;28;19929;-72
2024/01/14 10:06:29;;;;;;;;;;;;;;;-1.34;52.81;94925.56;4988134;28;19961;-71
2024/01/14 10:08:54;;;;;;;;;;;;;;;-1.22;51.78;94933.38;4997760;28;19995;-71
2024/01/14 10:11:19;;;;;;;;;;;;;;;-1.26;51.20;94927.53;4997730;28;19980;-72
2024/01/14 10:13:49;;;;;;;;;;;;;;;-1.30;53.10;94926.13;4997511;28;19925;-71
2024/01/14 10:16:14;;;;;;;;;;;;;;;-1.72;52.73;94927.56;4995536;28;20415;-72
2024/01/14 10:18:40;;;;;;;;;;;;;;;-1.81;53.36;94927.44;4996274;28;20031;-73
2024/01/14 10:21:05;;;;;;;;;;;;;;;-1.62;53.76;94908.59;4996475;28;20053;-71
2024/01/14 10:23:30;;;;;;;;;;;;;;;-1.78;51.80;94919.38;4996489;28;19964;-72
2024/01/14 10:26:01;;;;;;;;;;;;;;;-1.50;54.98;94905.03;4997278;28;20123;-72
2024/01/14 10:28:29;;;;;;;;;;;;;;;-1.25;54.77;94900.47;4994872;28;19956;-70
2024/01/14 10:30:54;;;;;;;;;;;;;;;-1.57;53.20;94897.81;4996004;28;20425;-73
2024/01/14 10:33:20;;;;;;;;;;;;;;;-1.72;53.46;94900.66;4996230;28;19956;-71
2024/01/14 10:35:45;;;;;;;;;;;;;;;-1.63;52.19;94899.13;4996171;28;20444;-73
2024/01/14 10:38:10;;;;;;;;;;;;;;;-1.12;53.32;94889.88;4996593;28;20334;-72
2024/01/14 10:40:35;;;;;;;;;;;;;;;-1.08;52.51;94893.91;4996753;28;19984;-72
2024/01/14 10:43:02;;;;;;;;;;;;;;;-1.24;53.27;94889.09;4995252;28;20457;-71
2024/01/14 10:45:27;;;;;;;;;;;;;;;-1.61;54.52;94894.59;4994852;28;20001;-73
2024/01/14 10:47:54;;;;;;;;;;;;;;;-1.49;53.28;94883.16;4994033;28;20305;-70
2024/01/14 10:50:20;;;;;;;;;;;;;;;-1.67;52.38;94877.63;4996296;28;19932;-71
2024/01/14 10:52:45;;;;;;;;;;;;;;;-2.27;53.43;94873.44;4994143;28;19925;-72
2024/01/14 10:55:18;;;;;;;;;;;;;;;-1.62;53.28;94870.25;4994635;28;19926;-70
2024/01/14 10:57:44;;;;;;;;;;;;;;;-1.06;50.80;94869.44;4993318;28;20445;-71
2024/01/14 11:00:10;;;;;;;;;;;;;;;-1.98;51.35;94859.97;4993861;28;19966;-73
2024/01/14 11:02:36;;;;;;;;;;;;;;;-1.68;53.77;94856.84;4996348;28;20371;-72
2024/01/14 11:05:02;;;;;;;;;;;;;;;-1.39;52.50;94849.31;4993914;28;20441;-71
2024/01/14 11:07:28;;;;;;;;;;;;;;;-1.29;51.51;94849.41;4993132;28;20019;-72
2024/01/14 11:09:53;;;;;;;;;;;;;;;-1.28;51.99;94853.72;4994734;28;20474;-70
2024/01/14 11:12:48;;;;;;;;;;;;;;;-1.39;50.94;94843.28;4994530;28;19929;-71
2024/01/14 11:15:18;;;;;;;;;;;;;;;-1.21;51.51;94835.75;5010409;28;20381;-71
2024/01/14 11:17:53;;;;;;;;;;;;;;;-1.95;52.18;94831.97;4995665;28;20003;-72
2024/01/14 11:20:18;;;;;;;;;;;;;;;-1.64;53.03;94829.56;4995247;28;20395;-73
2024/01/14 11:22:44;;;;;;;;;;;;;;;-1.65;51.47;94822.69;4994508;28;19924;-73
2024/01/14 11:25:16;;;;;;;;;;;;;;;-1.19;51.58;94820.78;4995784;28;19960;-71
2024/01/14 11:27:41;;;;;;;;;;;;;;;-1.39;51.83;94819.78;4994260;28;20258;-70
2024/01/14 11:30:11;;;;;;;;;;;;;;;-1.44;53.01;94814.94;4994653;28;20015;-71
2024/01/14 11:32:36;;;;;;;;;;;;;;;-1.15;51.83;94814.34;4993470;28;19973;-72
2024/01/14 11:35:02;;;;;;;;;;;;;;;-1.67;51.22;94808.94;4996686;28;20054;-73
2024/01/14 11:37:33;;;;;;;;;;;;;;;-1.64;51.43;94809.50;4993113;28;19992;-71
2024/01/14 11:40:09;;;;;;;;;;;;;;;-1.05;53.69;94798.75;4995467;28;19985;-71
2024/01/14 11:42:34;;;;;;;;;;;;;;;-1.14;50.29;94786.44;4991114;28;20433;-71
2024/01/14 11:45:00;;;;;;;;;;;;;;;-1.64;49.90;94798.22;4991501;28;19963;-71
2024/01/14 11:47:41;;;;;;;;;;;;;;;-1.75;52.98;94791.25;4993188;28;19967;-72
2024/01/14 11:50:08;;;;;;;;;;;;;;;-1.41;51.55;94783.34;4986072;28;20288;-71
2024/01/14 11:52:35;;;;;;;;;;;;;;;-1.28;51.44;94782.34;4993579;28;19926;-71
2024/01/14 11:55:03;;;;;;;;;;;;;;;-1.15;52.61;94776.97;4987098;28;20322;-71
2024/01/14 11:57:29;;;;;;;;;;;;;;;-1.11;51.16;94773.94;4992695;28;19977;-71
2024/01/14 11:59:54;;;;;;;;;;;;;;;-1.05;54.86;94762.16;4993217;28;19959;-73
2024/01/14 12:02:20;;;;;;;;;;;;;;;-1.03;56.79;94760.25;4993199;28;19964;-71
2024/01/14 12:04:45;;;;;;;;;;;;;;;-0.46;54.31;94751.28;4992921;28;20188;-71
2024/01/14 12:07:10;;;;;;;;;;;;;;;-0.74;50.63;94743.97;4993978;28;19922;-73
2024/01/14 12:09:35;;;;;;;;;;;;;;;-0.79;50.16;94734.84;4993480;28;19936;-72
2024/01/14 12:12:04;;;;;;;;;;;;;;;-0.66;56.17;94732.03;4993565;28;19956;-71
2024/01/14 12:14:29;;;;;;;;;;;;;;;-0.52;55.99;94726.47;4992034;28;19956;-72
2024/01/14 12:16:54;;;;;;;;;;;;;;;-0.32;51.83;94721.31;4994557;28;19922;-72
2024/01/14 12:19:20;;;;;;;;;;;;;;;-0.19;51.69;94727.13;4993079;28;19925;-71
2024/01/14 12:21:45;;;;;;;;;;;;;;;-0.25;52.10;94716.38;4996027;28;20016;-71
2024/01/14 12:24:10;;;;;;;;;;;;;;;-0.55;48.94;94711.03;4996029;28;20377;-72
2024/01/14 12:26:36;;;;;;;;;;;;;;;-1.01;49.92;94700.03;4995221;28;19926;-71
2024/01/14 12:29:01;;;;;;;;;;;;;;;-1.13;50.80;94707.94;4998530;28;20180;-71
2024/01/14 12:31:26;;;;;;;;;;;;;;;-1.01;53.19;94695.66;4998234;28;20422;-69
2024/01/14 12:33:51;;;;;;;;;;;;;;;-1.11;53.62;94697.38;4998845;28;19925;-72
2024/01/14 12:36:17;;;;;;;;;;;;;;;-0.92;50.47;94696.69;5000531;28;19926;-71
2024/01/14 12:38:42;;;;;;;;;;;;;;;-1.48;49.84;94693.41;5001910;28;19960;-70